Accueil
METAR-TAF:

METAR-TAF

Aéroports :

Base aérienne de Schaffen

Diest, Belgique

latitude: 51-00N, longitude: 005-04E, altitude: 30 m

Observation

Le bulletin a été fait il y a 34 minutes, à 03:25 UTC
Vent 6 kt de sud/sud-est
Température 7°C
Humidité 100%
Pression 1018 hPa
Visibilité: 4200 m
brume

METAR: EBDT 280325Z AUTO 16006KT 4200 BR NCD 07/07 Q1018 GRN

Heure: 05:59 (03:59 UTC)

Prévision

Le bulletin a été fait il y a 15 heures et 53 minutes, à 12:06 UTC
Prévision valable du 27 à 13 UTC au 27 à 22 UTC
Vent 9 kt de sud/sud-ouest
Visibilité 10 km ou plus
Nuages épars à une hauteur de 1800 ft
Nuages fragmentés à une hauteur de 24000 ft
Evoluant progressivement
du 27 à 15 UTC au 27 à 17 UTC
Quelques nuages à une hauteur de 2500 ft

TAF: EBDT 271206Z 2713/2722 21009KT 9999 SCT018 BKN240 BECMG 2715/2717 FEW025

Observations et prévisions météorologiques de plus de 4000 aéroports (messages METAR et TAF).

Les stations disponibles sont représentées par des disques jaunes et rouges sur la carte.

Passer la souris dessus pour voir le nom de la station.

Cliquer dessus pour voir les observations et prévisions météorologiques.

Pour changer de carte: cliquez sur les boutons verts avec une croix noire pour zoomer, sur le bouton vert avec un tiret pour effectuer un zoom arrière, ou sur les flèches vertes pour les cartes adjacentes.


METAR-TAF: